createdAt,value
2018-12-30T00:01:23.057Z,6.23
2018-12-30T00:03:50.446Z,6.22
2018-12-30T00:06:40.233Z,6.21
2018-12-30T00:09:18.632Z,6.22
2018-12-30T00:11:45.888Z,6.27
2018-12-30T00:14:13.055Z,6.31
2018-12-30T00:16:48.476Z,6.27
2018-12-30T00:19:16.015Z,6.28
2018-12-30T00:22:05.183Z,6.40
2018-12-30T00:24:32.398Z,6.51
2018-12-30T00:26:59.559Z,6.36
2018-12-30T00:29:26.798Z,6.32
2018-12-30T00:31:53.975Z,6.34
2018-12-30T00:35:08.582Z,6.38
2018-12-30T00:44:10.790Z,6.53
2018-12-30T00:46:37.987Z,6.60
2018-12-30T00:49:17.230Z,6.56
2018-12-30T00:57:25.307Z,6.92
2018-12-30T00:59:53.253Z,6.82
2018-12-30T01:02:20.408Z,6.84
2018-12-30T01:05:28.486Z,6.97
2018-12-30T01:07:55.977Z,7.19
2018-12-30T01:11:04.055Z,7.26
2018-12-30T01:13:31.448Z,7.18
2018-12-30T01:15:58.612Z,7.14
2018-12-30T01:18:25.889Z,7.04
2018-12-30T01:21:12.500Z,6.99
2018-12-30T01:23:39.973Z,7.10
2018-12-30T01:26:07.177Z,7.12
2018-12-30T01:28:53.855Z,7.20
2018-12-30T01:31:21.416Z,7.19
2018-12-30T01:34:08.176Z,7.16
2018-12-30T01:36:35.438Z,7.15
2018-12-30T01:39:43.368Z,7.20
2018-12-30T01:42:10.565Z,7.33
2018-12-30T01:44:37.736Z,7.37
2018-12-30T01:47:04.930Z,7.36
2018-12-30T01:50:12.819Z,7.45
2018-12-30T01:52:59.523Z,7.41
2018-12-30T01:55:26.656Z,7.43
2018-12-30T02:00:34.117Z,7.48
2018-12-30T02:03:01.252Z,7.46
2018-12-30T02:05:28.559Z,7.54
2018-12-30T02:11:09.798Z,7.71
2018-12-30T02:13:37.181Z,7.72
2018-12-30T02:19:17.347Z,7.91
2018-12-30T02:21:44.585Z,7.92
2018-12-30T02:24:31.409Z,7.96
2018-12-30T02:26:59.031Z,7.95
2018-12-30T02:29:45.755Z,8.02
2018-12-30T02:32:32.928Z,8.04
2018-12-30T02:35:12.503Z,8.04
2018-12-30T02:37:39.688Z,8.01
2018-12-30T02:40:47.741Z,8.09
2018-12-30T02:43:14.976Z,8.09
2018-12-30T02:46:42.907Z,8.06
2018-12-30T02:49:10.401Z,8.04
2018-12-30T02:52:18.423Z,8.12
2018-12-30T02:54:45.603Z,8.20
2018-12-30T02:57:12.659Z,8.20
2018-12-30T03:00:07.820Z,8.15
2018-12-30T03:03:15.729Z,8.20
2018-12-30T03:05:42.849Z,8.22
2018-12-30T03:08:10.013Z,8.32
2018-12-30T03:10:37.205Z,8.42
2018-12-30T03:13:04.291Z,8.35
2018-12-30T03:19:06.357Z,8.40
2018-12-30T03:24:13.449Z,8.53
2018-12-30T03:27:12.661Z,8.50
2018-12-30T03:29:39.849Z,8.47
2018-12-30T03:32:07.425Z,8.51
2018-12-30T03:34:34.646Z,8.46
2018-12-30T03:37:02.127Z,8.48
2018-12-30T03:39:29.328Z,8.41
2018-12-30T03:44:57.574Z,8.48
2018-12-30T03:47:44.201Z,8.37
2018-12-30T03:50:11.837Z,8.31
2018-12-30T03:52:39.071Z,8.39
2018-12-30T03:55:06.547Z,8.37
2018-12-30T03:57:33.771Z,8.48
2018-12-30T04:00:00.937Z,8.39
2018-12-30T04:05:30.051Z,8.37
2018-12-30T04:07:57.525Z,8.40
2018-12-30T04:10:56.400Z,8.35
2018-12-30T04:13:23.565Z,8.38
2018-12-30T04:15:50.736Z,8.46
2018-12-30T04:18:19.734Z,8.39
2018-12-30T04:20:46.901Z,8.36
2018-12-30T04:23:54.928Z,8.39
2018-12-30T04:26:22.516Z,8.54
2018-12-30T04:29:09.189Z,8.46
2018-12-30T04:35:10.635Z,8.34
2018-12-30T04:37:57.624Z,8.34
2018-12-30T04:40:24.853Z,8.34
2018-12-30T04:42:52.134Z,8.40
2018-12-30T04:45:38.828Z,8.28
2018-12-30T04:48:05.885Z,8.24
2018-12-30T04:50:58.982Z,8.20
2018-12-30T04:53:26.184Z,8.16
2018-12-30T04:56:12.838Z,8.01
2018-12-30T05:01:52.202Z,7.67
2018-12-30T05:04:31.003Z,7.50
2018-12-30T05:06:58.185Z,7.46
2018-12-30T05:09:25.476Z,7.45
2018-12-30T05:14:55.303Z,7.54
2018-12-30T05:23:03.411Z,7.57
2018-12-30T05:25:30.600Z,7.56
2018-12-30T05:27:57.806Z,7.56
2018-12-30T05:30:25.018Z,7.46
2018-12-30T05:36:12.706Z,7.46
2018-12-30T05:41:48.018Z,7.53
2018-12-30T05:44:15.090Z,7.47
2018-12-30T05:46:42.277Z,7.47
2018-12-30T05:49:50.236Z,7.46
2018-12-30T05:52:17.418Z,7.43
2018-12-30T05:54:44.822Z,7.52
2018-12-30T05:57:31.505Z,7.44
2018-12-30T05:59:58.576Z,7.40
2018-12-30T06:02:25.760Z,7.39
2018-12-30T06:05:12.353Z,7.26
2018-12-30T06:07:39.620Z,7.17
2018-12-30T06:13:08.251Z,7.38
2018-12-30T06:15:35.317Z,7.71
2018-12-30T06:18:02.375Z,7.84
2018-12-30T06:23:49.783Z,7.71
2018-12-30T06:26:57.781Z,7.47
2018-12-30T06:29:25.044Z,7.72
2018-12-30T06:31:52.097Z,7.49
2018-12-30T06:34:38.887Z,7.37
2018-12-30T06:37:06.075Z,7.40
2018-12-30T06:39:35.053Z,7.37
2018-12-30T06:42:02.280Z,7.35
2018-12-30T06:47:50.531Z,7.31
2018-12-30T06:50:37.193Z,7.50
2018-12-30T06:53:04.409Z,7.68
2018-12-30T06:55:51.038Z,7.60
2018-12-30T06:58:18.266Z,7.48
2018-12-30T07:04:05.707Z,7.45
2018-12-30T07:06:32.897Z,7.62
2018-12-30T07:12:21.018Z,7.54
2018-12-30T07:14:48.207Z,7.40
2018-12-30T07:17:15.385Z,7.46
2018-12-30T07:19:42.593Z,7.43
2018-12-30T07:22:29.224Z,7.36
2018-12-30T07:24:56.474Z,7.27
2018-12-30T07:27:23.652Z,7.31
2018-12-30T07:29:50.880Z,7.49
2018-12-30T07:32:37.577Z,7.51
2018-12-30T07:35:04.792Z,7.42
2018-12-30T07:38:12.869Z,7.52
2018-12-30T07:43:19.088Z,7.56
2018-12-30T07:45:46.465Z,7.55
2018-12-30T07:48:13.688Z,7.60
2018-12-30T07:53:40.113Z,7.69
2018-12-30T07:56:07.301Z,7.79
2018-12-30T07:58:34.497Z,7.79
2018-12-30T08:01:01.813Z,7.84
2018-12-30T08:03:29.069Z,7.90
2018-12-30T08:05:56.140Z,8.06
2018-12-30T08:08:23.459Z,8.09
2018-12-30T08:11:31.458Z,8.17
2018-12-30T08:14:18.189Z,8.23
2018-12-30T08:16:45.333Z,8.26
2018-12-30T08:19:32.025Z,8.27
2018-12-30T08:22:18.654Z,8.34
2018-12-30T08:24:45.898Z,8.55
2018-12-30T08:27:32.535Z,8.69
2018-12-30T08:29:59.854Z,8.82
2018-12-30T08:35:06.712Z,8.86
2018-12-30T08:37:34.217Z,8.83
2018-12-30T08:40:13.645Z,8.80
2018-12-30T08:42:40.814Z,8.78
2018-12-30T08:45:08.015Z,8.76
2018-12-30T08:47:35.242Z,8.75
2018-12-30T08:50:14.692Z,8.80
2018-12-30T08:52:41.872Z,8.80
2018-12-30T08:55:09.067Z,8.83
2018-12-30T08:57:36.247Z,8.96
2018-12-30T09:00:44.429Z,8.93
2018-12-30T09:03:11.555Z,8.93
2018-12-30T09:06:19.514Z,8.92
2018-12-30T09:09:06.139Z,8.93
2018-12-30T09:11:33.466Z,9.01
2018-12-30T09:17:21.077Z,9.05
2018-12-30T09:19:48.244Z,9.08
2018-12-30T09:22:15.454Z,9.26
2018-12-30T09:24:42.992Z,9.42
2018-12-30T09:30:56.483Z,9.78
2018-12-30T09:33:43.009Z,9.99
2018-12-30T09:36:10.356Z,10.08
2018-12-30T09:38:56.920Z,10.07
2018-12-30T09:41:36.243Z,10.05
2018-12-30T09:44:03.360Z,9.99
2018-12-30T09:46:30.520Z,10.01
2018-12-30T09:49:17.434Z,9.97
2018-12-30T09:51:44.581Z,9.96
2018-12-30T09:54:31.649Z,9.98
2018-12-30T09:57:18.319Z,9.96
2018-12-30T09:59:45.448Z,10.02
2018-12-30T10:02:12.672Z,10.08
2018-12-30T10:04:40.225Z,10.09
2018-12-30T10:07:07.556Z,10.17
2018-12-30T10:12:14.649Z,10.37
2018-12-30T10:14:53.666Z,10.34
2018-12-30T10:20:22.009Z,10.19
2018-12-30T10:22:49.211Z,10.10
2018-12-30T10:25:16.423Z,10.04
2018-12-30T10:34:05.026Z,10.16
2018-12-30T10:36:52.032Z,10.19
2018-12-30T10:39:19.265Z,10.21
2018-12-30T10:41:46.345Z,10.34
2018-12-30T10:44:13.566Z,10.41
2018-12-30T10:49:41.922Z,10.40
2018-12-30T10:52:09.030Z,10.36
2018-12-30T10:54:38.014Z,10.29
2018-12-30T10:57:05.136Z,10.31
2018-12-30T10:59:51.765Z,10.38
2018-12-30T11:02:19.301Z,10.38
2018-12-30T11:04:46.509Z,10.40
2018-12-30T11:13:16.041Z,10.53
2018-12-30T11:15:43.127Z,10.39
2018-12-30T11:18:10.213Z,10.37
2018-12-30T11:20:37.317Z,10.25
2018-12-30T11:23:04.422Z,10.18
2018-12-30T11:25:31.606Z,10.14
2018-12-30T11:28:18.304Z,10.22
2018-12-30T11:33:58.514Z,10.39
2018-12-30T11:36:25.726Z,10.47
2018-12-30T11:41:45.572Z,10.54
2018-12-30T11:44:12.676Z,10.71
2018-12-30T11:46:39.886Z,10.82
2018-12-30T11:52:08.262Z,10.85
2018-12-30T12:00:16.836Z,10.67
2018-12-30T12:02:44.544Z,10.56
2018-12-30T12:08:51.190Z,10.39
2018-12-30T12:11:18.712Z,10.31
2018-12-30T12:14:05.381Z,10.28
2018-12-30T12:16:32.547Z,10.25
2018-12-30T12:18:59.711Z,10.26
2018-12-30T12:21:26.940Z,10.32
2018-12-30T12:23:54.115Z,10.35
2018-12-30T12:26:21.336Z,10.43
2018-12-30T12:28:48.547Z,10.32
2018-12-30T12:31:15.663Z,10.21
2018-12-30T12:33:55.815Z,10.16
2018-12-30T12:36:23.012Z,10.14
2018-12-30T12:38:50.288Z,10.08
2018-12-30T12:41:17.761Z,10.05
2018-12-30T12:43:44.978Z,10.02
2018-12-30T12:46:12.152Z,10.05
2018-12-30T12:48:39.364Z,10.17
2018-12-30T12:51:06.495Z,10.19
2018-12-30T12:53:34.128Z,10.23
2018-12-30T12:56:01.718Z,10.23
2018-12-30T13:01:49.430Z,10.36
2018-12-30T13:04:16.946Z,10.44
2018-12-30T13:07:16.068Z,10.48
2018-12-30T13:09:43.238Z,10.45
2018-12-30T13:12:29.930Z,10.27
2018-12-30T13:15:16.841Z,10.16
2018-12-30T13:18:03.411Z,10.08
2018-12-30T13:20:30.492Z,10.00
2018-12-30T13:22:57.618Z,9.95
2018-12-30T13:28:25.658Z,9.79
2018-12-30T13:30:52.880Z,9.71
2018-12-30T13:33:32.138Z,9.70
2018-12-30T13:35:59.236Z,9.60
2018-12-30T13:38:38.653Z,9.53
2018-12-30T13:41:05.835Z,9.62
2018-12-30T13:43:33.024Z,9.64
2018-12-30T13:46:00.131Z,9.54
2018-12-30T13:48:46.778Z,9.52
2018-12-30T13:51:13.987Z,9.43
2018-12-30T13:53:41.180Z,9.38
2018-12-30T13:56:19.892Z,9.32
2018-12-30T13:58:53.947Z,9.35
2018-12-30T14:01:21.200Z,9.35
2018-12-30T14:04:07.838Z,9.32
2018-12-30T14:06:54.533Z,9.32
2018-12-30T14:09:21.720Z,9.30
2018-12-30T14:11:48.934Z,9.28
2018-12-30T14:14:16.123Z,9.30
2018-12-30T14:16:43.323Z,9.31
2018-12-30T14:19:10.618Z,9.23
2018-12-30T14:24:32.018Z,9.21
2018-12-30T14:27:40.078Z,9.14
2018-12-30T14:33:27.523Z,9.11
2018-12-30T14:35:54.709Z,9.17
2018-12-30T14:38:21.889Z,9.09
2018-12-30T14:41:31.976Z,9.05
2018-12-30T14:43:59.128Z,9.00
2018-12-30T14:46:45.800Z,8.95
2018-12-30T14:49:12.963Z,8.88
2018-12-30T14:52:20.908Z,8.85
2018-12-30T14:54:48.111Z,8.84
2018-12-30T14:57:35.021Z,8.82
2018-12-30T15:03:16.752Z,8.80
2018-12-30T15:05:43.931Z,8.79
2018-12-30T15:08:11.466Z,8.83
2018-12-30T15:13:53.480Z,8.74
2018-12-30T15:16:40.382Z,8.76
2018-12-30T15:19:07.923Z,8.83
2018-12-30T15:21:35.097Z,8.80
2018-12-30T15:24:02.317Z,8.72
2018-12-30T15:26:29.898Z,8.67
2018-12-30T15:28:57.123Z,8.65
2018-12-30T15:31:24.293Z,8.61
2018-12-30T15:33:51.549Z,8.59
2018-12-30T15:39:27.045Z,8.66
2018-12-30T15:42:06.615Z,8.62
2018-12-30T15:44:53.329Z,8.60
2018-12-30T15:50:22.591Z,8.66
2018-12-30T15:52:49.809Z,8.73
2018-12-30T15:55:19.591Z,8.80
2018-12-30T15:57:52.844Z,8.77
2018-12-30T16:00:20.410Z,8.70
2018-12-30T16:05:48.982Z,8.70
2018-12-30T16:08:36.012Z,8.55
2018-12-30T16:11:03.532Z,8.49
2018-12-30T16:13:30.725Z,8.52
2018-12-30T16:16:17.384Z,8.49
2018-12-30T16:18:44.928Z,8.56
2018-12-30T16:21:12.130Z,8.54
2018-12-30T16:23:39.360Z,8.45
2018-12-30T16:26:06.527Z,8.41
2018-12-30T16:28:33.708Z,8.45
2018-12-30T16:31:00.827Z,8.53
2018-12-30T16:33:28.012Z,8.50
2018-12-30T16:35:55.086Z,8.50
2018-12-30T16:39:03.309Z,8.50
2018-12-30T16:41:30.701Z,8.40
2018-12-30T16:44:11.031Z,8.31
2018-12-30T16:46:57.593Z,8.30
2018-12-30T16:49:44.266Z,8.27
2018-12-30T16:52:11.462Z,8.21
2018-12-30T16:54:38.674Z,8.23
2018-12-30T16:57:17.970Z,8.21
2018-12-30T17:03:05.275Z,8.17
2018-12-30T17:05:32.377Z,8.18
2018-12-30T17:11:00.925Z,8.21
2018-12-30T17:13:28.130Z,8.15
2018-12-30T17:18:35.788Z,8.06
2018-12-30T17:21:03.368Z,8.04
2018-12-30T17:23:30.541Z,8.05
2018-12-30T17:25:57.784Z,8.05
2018-12-30T17:28:25.213Z,7.99
2018-12-30T17:36:35.076Z,8.03
2018-12-30T17:39:22.447Z,7.97
2018-12-30T17:41:49.682Z,7.95
2018-12-30T17:47:25.002Z,7.94
2018-12-30T17:50:32.999Z,7.96
2018-12-30T17:58:19.957Z,7.91
2018-12-30T18:00:47.171Z,7.95
2018-12-30T18:03:14.245Z,7.96
2018-12-30T18:05:41.329Z,7.92
2018-12-30T18:08:08.538Z,7.89
2018-12-30T18:10:35.757Z,7.89
2018-12-30T18:13:02.936Z,7.86
2018-12-30T18:15:30.048Z,7.84
2018-12-30T18:18:16.589Z,7.83
2018-12-30T18:20:44.109Z,7.81
2018-12-30T18:23:11.284Z,7.84
2018-12-30T18:25:58.751Z,7.89
2018-12-30T18:28:46.722Z,8.05
2018-12-30T18:31:13.882Z,7.94
2018-12-30T18:33:41.191Z,7.89
2018-12-30T18:36:16.381Z,7.84
2018-12-30T18:38:43.584Z,7.87
2018-12-30T18:41:10.651Z,7.82
2018-12-30T18:43:37.871Z,7.93
2018-12-30T18:46:05.149Z,7.89
2018-12-30T18:48:32.393Z,7.86
2018-12-30T18:53:58.798Z,7.90
2018-12-30T18:56:45.437Z,7.82
2018-12-30T18:59:12.631Z,7.76
2018-12-30T19:01:59.578Z,7.72
2018-12-30T19:05:07.636Z,7.73
2018-12-30T19:07:34.767Z,7.71
2018-12-30T19:10:01.977Z,7.81
2018-12-30T19:12:48.572Z,7.78
2018-12-30T19:15:15.829Z,7.73
2018-12-30T19:18:02.477Z,7.70
2018-12-30T19:20:29.518Z,7.67
2018-12-30T19:22:56.935Z,7.68
2018-12-30T19:25:24.149Z,7.70
2018-12-30T19:27:51.412Z,7.67
2018-12-30T19:33:20.150Z,7.86
2018-12-30T19:35:47.331Z,7.84
2018-12-30T19:38:16.390Z,7.83
2018-12-30T19:40:43.677Z,7.98
2018-12-30T19:43:10.870Z,7.94
2018-12-30T19:45:38.101Z,7.92
2018-12-30T19:48:05.202Z,7.87
2018-12-30T19:50:32.426Z,7.82
2018-12-30T19:52:59.647Z,7.77
2018-12-30T19:55:26.861Z,7.75
2018-12-30T20:00:34.401Z,7.68
2018-12-30T20:06:15.055Z,7.89
2018-12-30T20:09:01.693Z,7.82
2018-12-30T20:11:48.593Z,7.75
2018-12-30T20:14:15.766Z,7.77
2018-12-30T20:17:02.460Z,7.84
2018-12-30T20:19:29.641Z,7.81
2018-12-30T20:21:57.138Z,7.79
2018-12-30T20:24:25.006Z,7.86
2018-12-30T20:27:11.708Z,7.84
2018-12-30T20:29:38.970Z,7.90
2018-12-30T20:32:06.261Z,7.87
2018-12-30T20:35:14.332Z,7.81
2018-12-30T20:37:41.786Z,7.72
2018-12-30T20:40:09.015Z,7.70
2018-12-30T20:42:36.222Z,7.63
2018-12-30T20:48:04.376Z,7.57
2018-12-30T20:53:32.628Z,7.59
2018-12-30T20:55:59.886Z,7.59
2018-12-30T20:58:27.075Z,7.63
2018-12-30T21:00:54.329Z,7.71
2018-12-30T21:06:21.988Z,7.72
2018-12-30T21:08:49.186Z,7.83
2018-12-30T21:11:16.383Z,7.80
2018-12-30T21:13:43.631Z,7.85
2018-12-30T21:16:10.827Z,7.85
2018-12-30T21:18:38.008Z,7.75
2018-12-30T21:21:05.119Z,7.70
2018-12-30T21:29:13.772Z,7.65
2018-12-30T21:34:20.746Z,7.57
2018-12-30T21:36:47.940Z,7.58
2018-12-30T21:48:02.128Z,7.56
2018-12-30T21:50:29.608Z,7.60
2018-12-30T21:52:57.186Z,7.66
2018-12-30T21:55:24.362Z,7.66
2018-12-30T21:58:23.363Z,7.85
2018-12-30T22:01:10.002Z,7.86
2018-12-30T22:03:56.686Z,7.79
2018-12-30T22:06:24.596Z,7.78
2018-12-30T22:08:52.144Z,7.67
2018-12-30T22:11:19.401Z,7.66
2018-12-30T22:13:46.589Z,7.67
2018-12-30T22:16:54.609Z,7.75
2018-12-30T22:22:55.725Z,7.67
2018-12-30T22:25:22.939Z,7.74
2018-12-30T22:30:51.067Z,7.62
2018-12-30T22:33:18.444Z,7.53
2018-12-30T22:38:46.508Z,7.62
2018-12-30T22:41:54.441Z,7.63
2018-12-30T22:47:01.734Z,7.54
2018-12-30T22:49:31.096Z,7.54
2018-12-30T22:52:18.065Z,7.57
2018-12-30T22:54:45.302Z,7.52
2018-12-30T22:57:24.739Z,7.58
2018-12-30T22:59:52.307Z,7.57
2018-12-30T23:02:19.510Z,7.51
2018-12-30T23:04:46.737Z,7.52
2018-12-30T23:07:13.830Z,7.53
2018-12-30T23:10:00.496Z,7.49
2018-12-30T23:15:48.261Z,7.50
2018-12-30T23:18:27.201Z,7.54
2018-12-30T23:20:54.681Z,7.56
2018-12-30T23:23:21.925Z,7.55
2018-12-30T23:28:50.255Z,7.62
2018-12-30T23:31:17.446Z,7.56
2018-12-30T23:33:56.534Z,7.59
2018-12-30T23:36:23.710Z,7.61
2018-12-30T23:38:51.137Z,7.56
2018-12-30T23:41:37.783Z,7.56
2018-12-30T23:44:24.342Z,7.61
2018-12-30T23:47:11.042Z,7.65
2018-12-30T23:49:38.117Z,7.61
2018-12-30T23:52:24.868Z,7.72
2018-12-30T23:54:52.033Z,7.75
2018-12-30T23:57:19.532Z,7.77
